createdAt,value
2023-03-27T00:01:12.085Z,94.20
2023-03-27T00:03:40.092Z,94.10
2023-03-27T00:08:53.413Z,94.60
2023-03-27T00:11:21.382Z,94.60
2023-03-27T00:13:51.388Z,94.60
2023-03-27T00:16:23.107Z,94.80
2023-03-27T00:18:49.918Z,94.80
2023-03-27T00:21:16.668Z,94.60
2023-03-27T00:23:43.544Z,94.60
2023-03-27T00:26:12.052Z,94.70
2023-03-27T00:28:38.951Z,94.40
2023-03-27T00:31:09.716Z,94.50
2023-03-27T00:33:36.459Z,94.40
2023-03-27T00:36:03.236Z,94.30
2023-03-27T00:38:30.113Z,94.40
2023-03-27T00:40:57.560Z,94.40
2023-03-27T00:43:29.058Z,94.40
2023-03-27T00:46:02.382Z,94.00
2023-03-27T00:48:30.939Z,94.00
2023-03-27T00:50:58.621Z,93.90
2023-03-27T00:53:27.811Z,94.00
2023-03-27T00:55:55.919Z,93.90
2023-03-27T00:58:24.897Z,93.60
2023-03-27T01:00:53.285Z,93.60
2023-03-27T01:03:21.530Z,93.50
2023-03-27T01:05:48.672Z,93.30
2023-03-27T01:08:34.129Z,93.50
2023-03-27T01:11:19.290Z,93.50
2023-03-27T01:14:04.878Z,93.70
2023-03-27T01:16:37.389Z,93.50
2023-03-27T01:22:52.763Z,93.60
2023-03-27T01:25:34.278Z,93.70
2023-03-27T01:28:04.061Z,93.40
2023-03-27T01:30:36.451Z,93.30
2023-03-27T01:33:25.904Z,92.80
2023-03-27T01:36:10.636Z,93.30
2023-03-27T01:38:43.221Z,94.10
2023-03-27T01:41:13.388Z,94.30
2023-03-27T01:43:44.557Z,94.50
2023-03-27T01:46:43.744Z,94.10
2023-03-27T01:49:22.540Z,93.80
2023-03-27T01:51:52.271Z,93.90
2023-03-27T01:54:21.939Z,93.40
2023-03-27T01:56:53.897Z,93.80
2023-03-27T01:59:22.729Z,93.40
2023-03-27T02:02:00.817Z,93.10
2023-03-27T02:04:34.733Z,93.10
2023-03-27T02:07:04.792Z,93.40
2023-03-27T02:09:34.476Z,93.40
2023-03-27T02:12:21.316Z,93.40
2023-03-27T02:14:51.538Z,93.50
2023-03-27T02:17:20.530Z,93.40
2023-03-27T02:19:51.359Z,93.50
2023-03-27T02:22:18.617Z,93.30
2023-03-27T02:24:46.317Z,92.90
2023-03-27T02:27:22.386Z,93.00
2023-03-27T02:29:52.259Z,93.10
2023-03-27T02:32:54.349Z,93.20
2023-03-27T02:35:30.253Z,93.30
2023-03-27T02:38:03.071Z,93.00
2023-03-27T02:40:39.930Z,92.70
2023-03-27T02:43:14.777Z,92.90
2023-03-27T02:46:10.841Z,93.40
2023-03-27T02:48:40.799Z,93.90
2023-03-27T02:51:12.817Z,93.80
2023-03-27T02:53:43.942Z,94.10
2023-03-27T02:56:11.923Z,93.90
2023-03-27T02:58:45.619Z,93.80
2023-03-27T03:01:16.320Z,94.10
2023-03-27T03:03:49.139Z,93.40
2023-03-27T03:06:15.955Z,93.50
2023-03-27T03:08:43.275Z,93.30
2023-03-27T03:11:12.079Z,93.30
2023-03-27T03:13:39.108Z,93.20
2023-03-27T03:16:06.205Z,93.20
2023-03-27T03:18:33.035Z,93.30
2023-03-27T03:21:00.149Z,93.30
2023-03-27T03:23:27.186Z,93.20
2023-03-27T03:25:56.892Z,93.10
2023-03-27T03:28:26.043Z,93.00
2023-03-27T03:30:53.771Z,92.90
2023-03-27T03:33:21.215Z,93.00
2023-03-27T03:35:49.086Z,93.10
2023-03-27T03:38:24.865Z,93.10
2023-03-27T03:40:55.615Z,93.40
2023-03-27T03:43:23.279Z,93.20
2023-03-27T03:45:50.561Z,93.40
2023-03-27T03:48:17.960Z,93.20
2023-03-27T03:50:45.738Z,93.20
2023-03-27T03:53:12.919Z,93.10
2023-03-27T03:55:39.725Z,93.00
2023-03-27T03:58:06.738Z,92.90
2023-03-27T04:00:39.692Z,92.80
2023-03-27T04:03:07.499Z,92.70
2023-03-27T04:05:37.601Z,92.40
2023-03-27T04:08:07.335Z,92.40
2023-03-27T04:10:34.761Z,92.50
2023-03-27T04:13:01.525Z,92.50
2023-03-27T04:15:28.442Z,92.60
2023-03-27T04:17:55.260Z,92.50
2023-03-27T04:20:22.034Z,92.60
2023-03-27T04:22:51.417Z,92.60
2023-03-27T04:25:22.209Z,92.50
2023-03-27T04:27:52.065Z,92.40
2023-03-27T04:30:23.262Z,92.30
2023-03-27T04:32:51.090Z,92.20
2023-03-27T04:35:19.052Z,92.10
2023-03-27T04:37:46.700Z,92.20
2023-03-27T04:40:14.648Z,92.10
2023-03-27T04:42:44.901Z,92.00
2023-03-27T04:45:13.227Z,92.20
2023-03-27T04:47:40.314Z,92.10
2023-03-27T04:50:07.646Z,92.20
2023-03-27T04:52:34.900Z,92.00
2023-03-27T04:55:01.861Z,91.90
2023-03-27T04:57:31.031Z,92.10
2023-03-27T04:59:58.541Z,92.10
2023-03-27T05:02:26.507Z,92.70
2023-03-27T05:04:58.721Z,92.40
2023-03-27T05:07:26.649Z,92.30
2023-03-27T05:09:53.469Z,92.00
2023-03-27T05:12:20.832Z,91.90
2023-03-27T05:14:48.633Z,91.90
2023-03-27T05:17:16.487Z,92.00
2023-03-27T05:19:43.627Z,91.60
2023-03-27T05:22:10.450Z,91.60
2023-03-27T05:24:37.785Z,92.00
2023-03-27T05:27:04.964Z,91.80
2023-03-27T05:29:46.663Z,91.80
2023-03-27T05:32:14.242Z,92.40
2023-03-27T05:34:41.467Z,92.50
2023-03-27T05:37:08.216Z,92.00
2023-03-27T05:39:36.679Z,92.00
2023-03-27T05:42:03.698Z,91.60
2023-03-27T05:44:30.437Z,91.80
2023-03-27T05:46:57.466Z,91.90
2023-03-27T05:49:24.233Z,92.20
2023-03-27T05:51:50.979Z,92.70
2023-03-27T05:54:17.754Z,92.20
2023-03-27T05:56:44.563Z,92.10
2023-03-27T05:59:11.810Z,92.20
2023-03-27T06:01:39.977Z,91.80
2023-03-27T06:04:09.380Z,91.80
2023-03-27T06:06:36.575Z,92.00
2023-03-27T06:09:03.937Z,91.90
2023-03-27T06:11:30.890Z,91.60
2023-03-27T06:13:58.703Z,91.80
2023-03-27T06:16:25.896Z,91.60
2023-03-27T06:18:53.166Z,91.60
2023-03-27T06:21:20.960Z,92.00
2023-03-27T06:23:47.927Z,91.70
2023-03-27T06:26:15.631Z,91.90
2023-03-27T06:28:42.673Z,91.60
2023-03-27T06:31:09.538Z,91.60
2023-03-27T06:33:36.386Z,91.50
2023-03-27T06:36:03.369Z,91.70
2023-03-27T06:38:32.482Z,91.70
2023-03-27T06:41:00.069Z,91.70
2023-03-27T06:43:27.030Z,91.60
2023-03-27T06:45:54.254Z,91.60
2023-03-27T06:48:22.638Z,91.60
2023-03-27T06:50:50.693Z,91.90
2023-03-27T06:55:47.952Z,92.00
2023-03-27T06:58:15.131Z,91.80
2023-03-27T07:00:42.450Z,91.70
2023-03-27T07:03:10.268Z,91.90
2023-03-27T07:05:38.963Z,91.90
2023-03-27T07:08:18.991Z,91.60
2023-03-27T07:10:59.809Z,91.70
2023-03-27T07:13:34.836Z,91.80
2023-03-27T07:16:01.659Z,91.80
2023-03-27T07:18:28.563Z,91.80
2023-03-27T07:23:22.328Z,92.10
2023-03-27T07:25:50.243Z,92.20
2023-03-27T07:28:18.582Z,92.10
2023-03-27T07:30:45.412Z,92.10
2023-03-27T07:33:12.694Z,92.20
2023-03-27T07:35:43.594Z,92.20
2023-03-27T07:38:10.583Z,92.30
2023-03-27T07:40:40.471Z,92.10
2023-03-27T07:43:07.812Z,92.30
2023-03-27T07:45:35.290Z,92.30
2023-03-27T07:48:09.358Z,92.30
2023-03-27T07:50:37.624Z,92.40
2023-03-27T07:53:06.467Z,92.50
2023-03-27T07:55:33.874Z,92.00
2023-03-27T07:58:03.007Z,92.40
2023-03-27T08:00:31.265Z,92.20
2023-03-27T08:03:11.635Z,92.50
2023-03-27T08:05:38.667Z,92.30
2023-03-27T08:08:05.497Z,92.30
2023-03-27T08:10:32.472Z,92.00
2023-03-27T08:12:59.232Z,91.80
2023-03-27T08:15:26.161Z,91.70
2023-03-27T08:17:55.093Z,91.30
2023-03-27T08:20:23.886Z,91.30
2023-03-27T08:22:51.455Z,90.80
2023-03-27T08:25:18.297Z,90.90
2023-03-27T08:27:45.390Z,90.40
2023-03-27T08:30:16.672Z,90.70
2023-03-27T08:32:44.081Z,90.50
2023-03-27T08:35:10.887Z,90.30
2023-03-27T08:37:37.807Z,90.30
2023-03-27T08:40:11.118Z,90.30
2023-03-27T08:42:40.069Z,90.20
2023-03-27T08:45:19.052Z,90.20
2023-03-27T08:47:50.526Z,90.00
2023-03-27T08:50:36.038Z,89.80
2023-03-27T08:53:04.869Z,90.30
2023-03-27T08:55:42.539Z,90.30
2023-03-27T08:58:15.786Z,89.30
2023-03-27T09:00:42.652Z,89.50
2023-03-27T09:03:40.777Z,89.90
2023-03-27T09:06:11.701Z,90.30
2023-03-27T09:08:43.725Z,90.00
2023-03-27T09:11:24.295Z,89.50
2023-03-27T09:13:51.630Z,90.00
2023-03-27T09:16:21.708Z,90.00
2023-03-27T09:19:07.163Z,90.10
2023-03-27T09:21:52.769Z,89.90
2023-03-27T09:24:27.369Z,89.90
2023-03-27T09:27:04.765Z,89.90
2023-03-27T09:29:36.512Z,89.80
2023-03-27T09:32:04.072Z,88.90
2023-03-27T09:34:34.513Z,90.00
2023-03-27T09:37:01.663Z,89.20
2023-03-27T09:39:30.140Z,90.00
2023-03-27T09:41:59.804Z,88.50
2023-03-27T09:44:32.981Z,89.00
2023-03-27T09:47:06.596Z,90.20
2023-03-27T09:49:34.500Z,89.00
2023-03-27T09:52:02.819Z,89.30
2023-03-27T09:54:29.823Z,90.20
2023-03-27T09:57:03.556Z,89.40
2023-03-27T09:59:34.280Z,90.20
2023-03-27T10:02:10.060Z,90.10
2023-03-27T10:04:36.857Z,90.50
2023-03-27T10:07:06.924Z,90.60
2023-03-27T10:09:37.554Z,90.60
2023-03-27T10:12:09.626Z,90.40
2023-03-27T10:14:39.455Z,90.20
2023-03-27T10:17:06.719Z,88.70
2023-03-27T10:19:38.557Z,90.60
2023-03-27T10:22:23.934Z,89.10
2023-03-27T10:24:53.111Z,89.80
2023-03-27T10:27:25.535Z,85.80
2023-03-27T10:29:52.426Z,84.90
2023-03-27T10:32:19.236Z,81.80
2023-03-27T10:34:54.244Z,83.40
2023-03-27T10:37:31.760Z,82.80
2023-03-27T10:40:07.728Z,81.90
2023-03-27T10:42:35.792Z,78.80
2023-03-27T10:45:03.155Z,77.30
2023-03-27T10:47:31.983Z,79.70
2023-03-27T10:50:16.435Z,78.90
2023-03-27T10:52:49.243Z,78.80
2023-03-27T10:55:31.483Z,77.70
2023-03-27T10:58:00.283Z,77.10
2023-03-27T11:00:32.550Z,78.40
2023-03-27T11:03:18.164Z,76.50
2023-03-27T11:05:46.919Z,75.40
2023-03-27T11:08:34.080Z,75.90
2023-03-27T11:11:07.426Z,77.40
2023-03-27T11:13:36.593Z,77.80
2023-03-27T11:16:03.848Z,77.80
2023-03-27T11:18:36.168Z,76.80
2023-03-27T11:21:12.979Z,76.60
2023-03-27T11:23:42.640Z,76.90
2023-03-27T11:26:11.601Z,77.10
2023-03-27T11:28:43.471Z,75.60
2023-03-27T11:31:40.256Z,74.10
2023-03-27T11:34:29.523Z,74.30
2023-03-27T11:36:59.701Z,73.70
2023-03-27T11:39:42.151Z,72.70
2023-03-27T11:42:17.213Z,71.60
2023-03-27T11:44:44.543Z,71.50
2023-03-27T11:47:14.479Z,69.80
2023-03-27T11:49:53.785Z,69.80
2023-03-27T11:52:36.539Z,69.60
2023-03-27T11:55:31.258Z,68.80
2023-03-27T11:58:17.667Z,69.30
2023-03-27T12:00:50.422Z,68.90
2023-03-27T12:03:36.277Z,68.80
2023-03-27T12:06:22.667Z,67.90
2023-03-27T12:08:52.550Z,67.80
2023-03-27T12:11:20.542Z,69.00
2023-03-27T12:14:00.485Z,68.40
2023-03-27T12:16:28.237Z,67.60
2023-03-27T12:19:03.757Z,67.20
2023-03-27T12:21:46.628Z,65.90
2023-03-27T12:24:20.098Z,66.00
2023-03-27T12:26:52.964Z,65.50
2023-03-27T12:29:35.388Z,66.30
2023-03-27T12:32:08.400Z,65.80
2023-03-27T12:35:03.791Z,65.30
2023-03-27T12:37:34.635Z,65.10
2023-03-27T12:40:01.470Z,63.90
2023-03-27T12:42:46.637Z,63.60
2023-03-27T12:45:14.343Z,63.00
2023-03-27T12:47:44.821Z,61.10
2023-03-27T12:50:20.066Z,60.50
2023-03-27T12:52:46.917Z,62.50
2023-03-27T12:55:13.752Z,61.80
2023-03-27T12:57:44.501Z,61.50
2023-03-27T13:00:21.528Z,62.10
2023-03-27T13:02:57.545Z,61.90
2023-03-27T13:05:27.862Z,63.00
2023-03-27T13:07:57.626Z,62.50
2023-03-27T13:10:50.951Z,62.10
2023-03-27T13:13:20.846Z,62.00
2023-03-27T13:16:06.651Z,60.40
2023-03-27T13:18:53.941Z,61.00
2023-03-27T13:21:20.751Z,61.10
2023-03-27T13:23:59.583Z,61.30
2023-03-27T13:26:26.541Z,61.00
2023-03-27T13:28:54.330Z,60.80
2023-03-27T13:31:50.473Z,60.40
2023-03-27T13:34:26.262Z,60.00
2023-03-27T13:37:06.493Z,59.40
2023-03-27T13:39:40.969Z,59.40
2023-03-27T13:42:13.783Z,58.40
2023-03-27T13:44:47.233Z,59.00
2023-03-27T13:47:19.891Z,58.10
2023-03-27T13:49:46.643Z,58.40
2023-03-27T13:52:32.396Z,58.00
2023-03-27T13:54:59.176Z,58.60
2023-03-27T13:57:34.771Z,59.30
2023-03-27T14:00:08.398Z,59.40
2023-03-27T14:02:53.693Z,59.20
2023-03-27T14:05:27.882Z,60.10
2023-03-27T14:08:02.162Z,59.10
2023-03-27T14:10:38.037Z,57.90
2023-03-27T14:13:14.632Z,57.80
2023-03-27T14:15:41.340Z,58.00
2023-03-27T14:18:08.257Z,57.90
2023-03-27T14:20:45.451Z,57.70
2023-03-27T14:23:26.596Z,57.50
2023-03-27T14:26:02.012Z,57.10
2023-03-27T14:28:33.521Z,56.80
2023-03-27T14:31:03.346Z,55.90
2023-03-27T14:33:30.882Z,55.20
2023-03-27T14:36:04.035Z,55.60
2023-03-27T14:38:33.289Z,54.90
2023-03-27T14:41:01.295Z,55.20
2023-03-27T14:43:28.917Z,54.60
2023-03-27T14:45:58.674Z,55.80
2023-03-27T14:48:28.878Z,56.40
2023-03-27T14:51:01.929Z,56.40
2023-03-27T14:53:36.384Z,55.80
2023-03-27T14:56:11.694Z,56.80
2023-03-27T14:58:43.675Z,55.50
2023-03-27T15:01:10.550Z,53.90
2023-03-27T15:03:38.357Z,54.70
2023-03-27T15:06:15.567Z,55.10
2023-03-27T15:08:46.655Z,54.60
2023-03-27T15:11:19.671Z,54.90
2023-03-27T15:13:48.195Z,54.40
2023-03-27T15:16:23.068Z,53.80
2023-03-27T15:18:49.914Z,54.30
2023-03-27T15:21:22.132Z,54.20
2023-03-27T15:23:58.895Z,53.30
2023-03-27T15:26:28.769Z,52.90
2023-03-27T15:29:04.185Z,53.30
2023-03-27T15:31:32.922Z,52.10
2023-03-27T15:34:03.317Z,52.90
2023-03-27T15:36:34.343Z,53.30
2023-03-27T15:39:02.756Z,53.60
2023-03-27T15:41:32.290Z,53.30
2023-03-27T15:44:03.203Z,52.30
2023-03-27T15:46:48.882Z,52.80
2023-03-27T15:49:19.656Z,53.20
2023-03-27T15:51:46.428Z,53.90
2023-03-27T15:54:42.808Z,54.60
2023-03-27T15:57:15.039Z,55.00
2023-03-27T15:59:51.603Z,55.20
2023-03-27T16:02:21.269Z,53.20
2023-03-27T16:04:53.184Z,52.40
2023-03-27T16:07:23.160Z,53.50
2023-03-27T16:09:50.141Z,53.60
2023-03-27T16:12:18.760Z,53.20
2023-03-27T16:14:48.498Z,52.90
2023-03-27T16:17:16.960Z,54.60
2023-03-27T16:19:52.884Z,54.50
2023-03-27T16:22:38.726Z,55.20
2023-03-27T16:25:07.175Z,53.80
2023-03-27T16:27:38.878Z,52.80
2023-03-27T16:30:19.545Z,54.30
2023-03-27T16:32:46.333Z,52.40
2023-03-27T16:35:13.368Z,52.10
2023-03-27T16:37:40.165Z,50.80
2023-03-27T16:40:07.208Z,52.20
2023-03-27T16:42:33.995Z,52.40
2023-03-27T16:45:01.903Z,58.70
2023-03-27T16:47:28.656Z,53.20
2023-03-27T16:50:10.365Z,54.60
2023-03-27T16:52:38.241Z,53.90
2023-03-27T16:55:07.262Z,53.80
2023-03-27T16:57:34.674Z,52.50
2023-03-27T17:00:01.541Z,51.60
2023-03-27T17:02:30.754Z,56.30
2023-03-27T17:04:58.891Z,54.70
2023-03-27T17:07:27.644Z,54.80
2023-03-27T17:09:54.650Z,51.70
2023-03-27T17:12:21.536Z,53.60
2023-03-27T17:14:48.483Z,52.90
2023-03-27T17:17:15.496Z,57.80
2023-03-27T17:19:42.251Z,56.00
2023-03-27T17:22:09.565Z,54.80
2023-03-27T17:24:49.301Z,52.60
2023-03-27T17:27:20.594Z,55.20
2023-03-27T17:29:47.313Z,51.60
2023-03-27T17:32:14.289Z,51.80
2023-03-27T17:34:41.610Z,52.10
2023-03-27T17:37:08.335Z,55.70
2023-03-27T17:39:35.302Z,52.00
2023-03-27T17:42:02.174Z,51.20
2023-03-27T17:44:28.907Z,50.40
2023-03-27T17:46:55.704Z,50.00
2023-03-27T17:49:22.593Z,52.90
2023-03-27T17:51:49.391Z,50.00
2023-03-27T17:54:16.535Z,51.50
2023-03-27T17:56:43.449Z,51.80
2023-03-27T17:59:10.259Z,52.20
2023-03-27T18:01:37.155Z,51.00
2023-03-27T18:04:04.353Z,49.10
2023-03-27T18:06:31.221Z,49.80
2023-03-27T18:08:58.210Z,50.50
2023-03-27T18:11:25.079Z,49.00
2023-03-27T18:13:53.292Z,50.10
2023-03-27T18:16:21.837Z,49.40
2023-03-27T18:18:49.068Z,50.80
2023-03-27T18:21:16.408Z,49.80
2023-03-27T18:23:45.747Z,50.60
2023-03-27T18:26:13.969Z,49.40
2023-03-27T18:28:40.823Z,48.90
2023-03-27T18:31:09.104Z,49.60
2023-03-27T18:33:36.555Z,49.90
2023-03-27T18:36:04.204Z,50.20
2023-03-27T18:38:31.109Z,49.60
2023-03-27T18:40:59.809Z,50.20
2023-03-27T18:43:26.848Z,50.90
2023-03-27T18:46:01.039Z,51.70
2023-03-27T18:48:29.411Z,50.40
2023-03-27T18:50:56.939Z,49.90
2023-03-27T18:53:24.002Z,49.50
2023-03-27T18:55:51.490Z,50.00
2023-03-27T18:58:18.490Z,49.10
2023-03-27T19:00:46.109Z,49.60
2023-03-27T19:03:18.017Z,49.80
2023-03-27T19:05:45.107Z,50.20
2023-03-27T19:08:12.470Z,51.50
2023-03-27T19:10:39.450Z,50.40
2023-03-27T19:13:06.306Z,50.30
2023-03-27T19:15:33.437Z,49.10
2023-03-27T19:18:01.152Z,49.00
2023-03-27T19:20:28.339Z,49.40
2023-03-27T19:22:55.174Z,50.40
2023-03-27T19:25:21.962Z,48.50
2023-03-27T19:27:48.727Z,50.30
2023-03-27T19:30:15.825Z,50.40
2023-03-27T19:32:42.613Z,49.80
2023-03-27T19:35:09.579Z,49.40
2023-03-27T19:37:36.943Z,48.60
2023-03-27T19:40:05.463Z,50.20
2023-03-27T19:42:32.279Z,50.70
2023-03-27T19:44:59.071Z,48.90
2023-03-27T19:47:25.875Z,50.90
2023-03-27T19:49:53.682Z,48.80
2023-03-27T19:52:20.686Z,48.80
2023-03-27T19:54:47.432Z,48.60
2023-03-27T19:57:14.282Z,48.80
2023-03-27T19:59:41.240Z,47.10
2023-03-27T20:02:09.669Z,48.40
2023-03-27T20:04:36.445Z,47.90
2023-03-27T20:07:03.339Z,49.50
2023-03-27T20:09:30.409Z,48.50
2023-03-27T20:11:57.319Z,50.10
2023-03-27T20:14:24.320Z,49.10
2023-03-27T20:16:51.092Z,49.30
2023-03-27T20:19:18.657Z,49.70
2023-03-27T20:21:46.820Z,48.80
2023-03-27T20:24:14.288Z,48.20
2023-03-27T20:26:41.712Z,48.70
2023-03-27T20:29:10.134Z,48.60
2023-03-27T20:31:37.013Z,48.80
2023-03-27T20:34:04.707Z,49.60
2023-03-27T20:36:35.056Z,50.50
2023-03-27T20:39:07.977Z,49.60
2023-03-27T20:41:39.067Z,50.20
2023-03-27T20:44:14.964Z,50.90
2023-03-27T20:46:47.787Z,51.10
2023-03-27T20:49:37.575Z,51.60
2023-03-27T20:52:07.565Z,51.50
2023-03-27T20:54:34.770Z,51.90
2023-03-27T20:57:02.731Z,49.60
2023-03-27T20:59:30.712Z,53.70
2023-03-27T21:01:57.867Z,51.30
2023-03-27T21:04:26.137Z,52.30
2023-03-27T21:06:54.966Z,51.40
2023-03-27T21:09:22.447Z,51.80
2023-03-27T21:11:49.329Z,52.20
2023-03-27T21:14:16.274Z,53.20
2023-03-27T21:16:43.280Z,53.90
2023-03-27T21:19:10.773Z,53.40
2023-03-27T21:21:37.708Z,54.10
2023-03-27T21:24:04.777Z,53.50
2023-03-27T21:26:31.543Z,55.60
2023-03-27T21:28:58.433Z,54.20
2023-03-27T21:31:25.243Z,52.80
2023-03-27T21:33:52.067Z,52.60
2023-03-27T21:36:19.007Z,56.60
2023-03-27T21:38:45.849Z,55.60
2023-03-27T21:41:14.315Z,56.70
2023-03-27T21:43:41.195Z,56.70
2023-03-27T21:46:08.153Z,55.90
2023-03-27T21:48:34.899Z,56.40
2023-03-27T21:51:02.962Z,55.80
2023-03-27T21:53:29.818Z,54.70
2023-03-27T21:55:57.653Z,54.90
2023-03-27T21:58:25.339Z,56.30
2023-03-27T22:00:52.415Z,55.90
2023-03-27T22:03:19.157Z,55.50
2023-03-27T22:05:54.354Z,54.70
2023-03-27T22:08:28.064Z,57.10
2023-03-27T22:10:58.987Z,56.20
2023-03-27T22:13:25.855Z,54.80
2023-03-27T22:15:52.643Z,55.20
2023-03-27T22:18:19.564Z,58.40
2023-03-27T22:20:46.468Z,59.80
2023-03-27T22:23:13.209Z,59.00
2023-03-27T22:25:40.087Z,59.10
2023-03-27T22:28:06.846Z,58.60
2023-03-27T22:30:33.848Z,57.90
2023-03-27T22:33:00.802Z,58.30
2023-03-27T22:35:27.631Z,57.70
2023-03-27T22:37:54.347Z,57.10
2023-03-27T22:40:21.192Z,58.20
2023-03-27T22:42:47.957Z,58.70
2023-03-27T22:45:14.744Z,56.40
2023-03-27T22:47:41.587Z,57.90
2023-03-27T22:50:08.908Z,58.20
2023-03-27T22:52:35.624Z,57.40
2023-03-27T22:55:02.390Z,56.60
2023-03-27T22:57:29.172Z,58.00
2023-03-27T22:59:56.082Z,59.80
2023-03-27T23:02:22.989Z,59.60
2023-03-27T23:04:49.790Z,59.20
2023-03-27T23:07:16.602Z,58.70
2023-03-27T23:09:43.433Z,57.90
2023-03-27T23:12:10.234Z,57.40
2023-03-27T23:14:36.990Z,59.20
2023-03-27T23:17:04.040Z,59.90
2023-03-27T23:19:30.920Z,59.60
2023-03-27T23:21:57.665Z,58.80
2023-03-27T23:24:24.424Z,58.90
2023-03-27T23:26:51.342Z,57.90
2023-03-27T23:29:18.079Z,57.90
2023-03-27T23:31:44.963Z,58.00
2023-03-27T23:34:11.746Z,58.00
2023-03-27T23:36:38.574Z,58.20
2023-03-27T23:39:05.395Z,59.70
2023-03-27T23:41:32.163Z,60.60
2023-03-27T23:43:58.902Z,60.20
2023-03-27T23:46:25.895Z,58.50
2023-03-27T23:48:52.650Z,58.70
2023-03-27T23:51:19.376Z,58.20
2023-03-27T23:53:46.260Z,60.40
2023-03-27T23:56:13.168Z,58.30
2023-03-27T23:58:39.972Z,59.10
